createdAt,value
2023-05-17T00:00:57.763Z,34.23
2023-05-17T00:03:25.140Z,33.91
2023-05-17T00:05:51.920Z,34.20
2023-05-17T00:08:18.773Z,34.59
2023-05-17T00:10:45.390Z,35.53
2023-05-17T00:13:12.606Z,35.22
2023-05-17T00:15:39.255Z,34.94
2023-05-17T00:18:05.937Z,35.59
2023-05-17T00:20:33.012Z,35.17
2023-05-17T00:23:00.745Z,35.35
2023-05-17T00:25:27.532Z,34.54
2023-05-17T00:27:54.241Z,34.83
2023-05-17T00:30:21.179Z,35.06
2023-05-17T00:32:48.440Z,34.22
2023-05-17T00:35:15.239Z,34.49
2023-05-17T00:37:47.564Z,35.14
2023-05-17T00:40:16.232Z,34.42
2023-05-17T00:42:42.833Z,34.50
2023-05-17T00:45:09.877Z,34.46
2023-05-17T00:47:36.585Z,34.59
2023-05-17T00:50:04.159Z,34.66
2023-05-17T00:52:30.871Z,35.07
2023-05-17T00:54:57.662Z,35.01
2023-05-17T00:57:24.853Z,35.22
2023-05-17T00:59:52.651Z,35.81
2023-05-17T01:02:19.698Z,36.78
2023-05-17T01:04:48.145Z,35.56
2023-05-17T01:07:15.687Z,36.00
2023-05-17T01:09:46.742Z,35.93
2023-05-17T01:12:49.289Z,36.06
2023-05-17T01:15:26.002Z,35.27
2023-05-17T01:18:04.483Z,34.91
2023-05-17T01:20:41.910Z,35.37
2023-05-17T01:23:28.837Z,35.68
2023-05-17T01:26:09.592Z,35.05
2023-05-17T01:28:38.885Z,35.10
2023-05-17T01:31:08.327Z,35.14
2023-05-17T01:33:37.996Z,35.16
2023-05-17T01:36:05.125Z,35.65
2023-05-17T01:38:31.706Z,34.48
2023-05-17T01:41:30.688Z,34.34
2023-05-17T01:44:17.956Z,33.99
2023-05-17T01:46:44.696Z,33.91
2023-05-17T01:49:37.560Z,33.72
2023-05-17T01:52:07.800Z,33.97
2023-05-17T01:54:43.416Z,33.98
2023-05-17T01:57:11.547Z,33.35
2023-05-17T01:59:38.828Z,33.63
2023-05-17T02:02:11.986Z,33.50
2023-05-17T02:04:38.638Z,33.60
2023-05-17T02:07:05.364Z,33.34
2023-05-17T02:09:31.969Z,33.12
2023-05-17T02:11:59.302Z,33.04
2023-05-17T02:14:26.003Z,33.51
2023-05-17T02:16:53.055Z,33.33
2023-05-17T02:19:19.746Z,33.17
2023-05-17T02:21:46.410Z,33.60
2023-05-17T02:24:13.012Z,33.95
2023-05-17T02:26:42.816Z,34.11
2023-05-17T02:29:13.510Z,33.80
2023-05-17T02:31:40.300Z,34.03
2023-05-17T02:34:07.100Z,34.31
2023-05-17T02:36:33.668Z,34.15
2023-05-17T02:39:00.700Z,34.57
2023-05-17T02:41:27.324Z,34.75
2023-05-17T02:43:54.211Z,34.61
2023-05-17T02:46:21.862Z,34.54
2023-05-17T02:48:49.648Z,34.56
2023-05-17T02:51:16.814Z,34.71
2023-05-17T02:53:43.443Z,35.58
2023-05-17T02:56:10.140Z,35.04
2023-05-17T02:58:36.968Z,35.02
2023-05-17T03:01:03.594Z,35.70
2023-05-17T03:03:31.765Z,36.24
2023-05-17T03:06:02.861Z,35.79
2023-05-17T03:08:29.535Z,36.08
2023-05-17T03:10:57.158Z,35.05
2023-05-17T03:13:24.802Z,36.14
2023-05-17T03:15:51.414Z,35.51
2023-05-17T03:18:18.300Z,34.45
2023-05-17T03:20:45.008Z,34.58
2023-05-17T03:23:11.590Z,34.61
2023-05-17T03:25:48.534Z,34.78
2023-05-17T03:28:15.179Z,34.78
2023-05-17T03:30:42.255Z,34.25
2023-05-17T03:33:09.391Z,34.43
2023-05-17T03:35:36.775Z,33.99
2023-05-17T03:38:03.392Z,34.32
2023-05-17T03:40:30.454Z,34.10
2023-05-17T03:42:58.979Z,33.94
2023-05-17T03:45:27.779Z,34.25
2023-05-17T03:47:54.863Z,34.23
2023-05-17T03:50:21.874Z,34.26
2023-05-17T03:52:48.907Z,34.50
2023-05-17T03:55:15.495Z,34.80
2023-05-17T03:57:42.100Z,34.65
2023-05-17T04:00:11.006Z,34.40
2023-05-17T04:02:41.430Z,34.75
2023-05-17T04:05:08.770Z,34.84
2023-05-17T04:07:35.464Z,35.38
2023-05-17T04:10:06.039Z,34.82
2023-05-17T04:12:32.659Z,34.77
2023-05-17T04:14:59.273Z,34.73
2023-05-17T04:17:25.896Z,34.06
2023-05-17T04:19:55.534Z,33.96
2023-05-17T04:22:22.715Z,33.27
2023-05-17T04:24:49.724Z,33.58
2023-05-17T04:27:16.919Z,33.07
2023-05-17T04:29:44.268Z,33.21
2023-05-17T04:32:10.910Z,33.73
2023-05-17T04:34:38.363Z,32.78
2023-05-17T04:37:06.165Z,32.44
2023-05-17T04:39:34.971Z,32.17
2023-05-17T04:42:02.311Z,32.29
2023-05-17T04:44:29.570Z,32.90
2023-05-17T04:46:56.815Z,33.01
2023-05-17T04:49:25.134Z,33.51
2023-05-17T04:51:52.508Z,34.00
2023-05-17T04:54:19.222Z,34.06
2023-05-17T04:56:46.117Z,33.78
2023-05-17T04:59:19.155Z,33.49
2023-05-17T05:01:46.111Z,32.95
2023-05-17T05:04:12.943Z,32.63
2023-05-17T05:06:42.522Z,31.99
2023-05-17T05:09:09.870Z,31.93
2023-05-17T05:11:38.095Z,32.38
2023-05-17T05:14:05.978Z,32.24
2023-05-17T05:16:33.511Z,31.45
2023-05-17T05:19:00.695Z,31.21
2023-05-17T05:21:27.519Z,29.68
2023-05-17T05:23:54.940Z,28.06
2023-05-17T05:26:21.883Z,26.66
2023-05-17T05:28:49.323Z,25.67
2023-05-17T05:31:16.415Z,24.15
2023-05-17T05:33:48.716Z,24.40
2023-05-17T05:36:15.704Z,22.91
2023-05-17T05:38:42.425Z,22.97
2023-05-17T05:41:09.053Z,23.65
2023-05-17T05:43:37.858Z,23.67
2023-05-17T05:46:04.808Z,23.73
2023-05-17T05:48:31.495Z,24.30
2023-05-17T05:50:58.125Z,25.10
2023-05-17T05:53:25.517Z,25.11
2023-05-17T05:55:54.577Z,25.07
2023-05-17T05:58:21.389Z,24.87
2023-05-17T06:00:48.107Z,23.80
2023-05-17T06:03:15.275Z,24.14
2023-05-17T06:05:42.187Z,24.38
2023-05-17T06:08:08.958Z,24.11
2023-05-17T06:10:35.687Z,23.28
2023-05-17T06:13:02.617Z,22.59
2023-05-17T06:15:31.304Z,22.11
2023-05-17T06:17:57.989Z,21.62
2023-05-17T06:20:24.617Z,21.85
2023-05-17T06:22:51.707Z,21.73
2023-05-17T06:25:18.284Z,21.31
2023-05-17T06:27:44.973Z,20.93
2023-05-17T06:30:15.158Z,20.26
2023-05-17T06:32:42.199Z,20.20
2023-05-17T06:35:09.327Z,20.18
2023-05-17T06:37:35.952Z,21.26
2023-05-17T06:40:14.838Z,22.24
2023-05-17T06:42:42.595Z,23.16
2023-05-17T06:45:09.822Z,24.63
2023-05-17T06:47:36.473Z,25.18
2023-05-17T06:50:03.351Z,26.64
2023-05-17T06:52:29.990Z,27.34
2023-05-17T06:54:56.970Z,27.66
2023-05-17T06:57:24.766Z,28.14
2023-05-17T06:59:52.184Z,27.80
2023-05-17T07:02:19.811Z,27.43
2023-05-17T07:04:46.511Z,27.42
2023-05-17T07:07:13.123Z,27.94
2023-05-17T07:09:40.224Z,27.96
2023-05-17T07:12:07.271Z,27.38
2023-05-17T07:14:34.107Z,27.21
2023-05-17T07:17:00.704Z,26.74
2023-05-17T07:19:27.731Z,26.55
2023-05-17T07:21:54.451Z,26.22
2023-05-17T07:24:21.251Z,26.19
2023-05-17T07:26:48.175Z,26.36
2023-05-17T07:29:16.138Z,25.85
2023-05-17T07:31:42.755Z,26.61
2023-05-17T07:34:09.357Z,26.79
2023-05-17T07:36:36.006Z,26.51
2023-05-17T07:39:05.202Z,27.49
2023-05-17T07:41:34.008Z,28.66
2023-05-17T07:44:00.587Z,29.32
2023-05-17T07:46:27.310Z,28.37
2023-05-17T07:48:55.837Z,28.72
2023-05-17T07:51:24.790Z,28.80
2023-05-17T07:53:51.829Z,29.25
2023-05-17T07:56:18.399Z,27.64
2023-05-17T07:58:44.955Z,26.48
2023-05-17T08:01:11.593Z,24.79
2023-05-17T08:03:38.170Z,24.50
2023-05-17T08:06:05.450Z,24.57
2023-05-17T08:08:32.032Z,25.33
2023-05-17T08:10:58.572Z,24.89
2023-05-17T08:13:25.980Z,25.07
2023-05-17T08:16:01.730Z,25.09
2023-05-17T08:18:37.262Z,26.06
2023-05-17T08:21:04.706Z,25.28
2023-05-17T08:23:31.609Z,25.26
2023-05-17T08:25:58.307Z,24.95
2023-05-17T08:28:28.460Z,24.67
2023-05-17T08:30:55.416Z,25.05
2023-05-17T08:33:23.403Z,25.63
2023-05-17T08:35:50.478Z,25.53
2023-05-17T08:38:19.940Z,25.92
2023-05-17T08:40:55.060Z,26.11
2023-05-17T08:43:24.221Z,26.46
2023-05-17T08:45:53.167Z,27.79
2023-05-17T08:48:20.766Z,27.66
2023-05-17T08:50:50.508Z,27.40
2023-05-17T08:53:18.085Z,27.32
2023-05-17T08:55:48.850Z,27.09
2023-05-17T08:58:21.312Z,26.84
2023-05-17T09:00:51.643Z,26.88
2023-05-17T09:03:22.390Z,25.88
2023-05-17T09:05:53.836Z,26.30
2023-05-17T09:08:22.785Z,26.30
2023-05-17T09:10:50.612Z,25.35
2023-05-17T09:13:18.073Z,25.50
2023-05-17T09:15:47.292Z,24.59
2023-05-17T09:18:17.027Z,24.22
2023-05-17T09:20:51.673Z,24.24
2023-05-17T09:23:21.449Z,24.38
2023-05-17T09:25:49.223Z,24.72
2023-05-17T09:28:18.892Z,25.51
2023-05-17T09:30:49.364Z,26.21
2023-05-17T09:33:18.567Z,25.79
2023-05-17T09:35:45.721Z,25.79
2023-05-17T09:38:14.162Z,26.11
2023-05-17T09:40:42.515Z,26.24
2023-05-17T09:43:10.869Z,26.21
2023-05-17T09:45:38.025Z,26.29
2023-05-17T09:48:22.556Z,26.26
2023-05-17T09:50:52.004Z,26.23
2023-05-17T09:53:39.958Z,25.58
2023-05-17T09:56:07.177Z,25.65
2023-05-17T09:58:37.741Z,25.39
2023-05-17T10:01:07.226Z,25.61
2023-05-17T10:03:38.514Z,26.35
2023-05-17T10:06:13.464Z,25.90
2023-05-17T10:08:51.358Z,25.52
2023-05-17T10:11:21.325Z,25.00
2023-05-17T10:13:55.486Z,24.14
2023-05-17T10:16:23.376Z,24.44
2023-05-17T10:18:50.291Z,25.10
2023-05-17T10:21:17.818Z,24.39
2023-05-17T10:23:46.650Z,25.35
2023-05-17T10:26:16.001Z,25.72
2023-05-17T10:28:43.211Z,26.14
2023-05-17T10:31:10.128Z,25.64
2023-05-17T10:33:37.382Z,26.50
2023-05-17T10:36:06.675Z,26.36
2023-05-17T10:38:41.680Z,26.67
2023-05-17T10:41:14.361Z,25.23
2023-05-17T10:43:42.981Z,24.90
2023-05-17T10:46:16.783Z,24.29
2023-05-17T10:48:52.128Z,23.52
2023-05-17T10:51:31.401Z,23.44
2023-05-17T10:54:08.853Z,23.12
2023-05-17T10:56:40.287Z,23.68
2023-05-17T10:59:19.590Z,25.27
2023-05-17T11:02:06.128Z,24.56
2023-05-17T11:04:38.252Z,25.15
2023-05-17T11:07:17.878Z,24.05
2023-05-17T11:09:46.195Z,24.71
2023-05-17T11:12:15.804Z,23.71
2023-05-17T11:14:45.533Z,23.65
2023-05-17T11:17:17.978Z,23.65
2023-05-17T11:20:10.914Z,24.06
2023-05-17T11:22:49.527Z,24.53
2023-05-17T11:25:17.250Z,24.77
2023-05-17T11:27:49.110Z,24.96
2023-05-17T11:30:24.775Z,25.08
2023-05-17T11:32:53.616Z,24.80
2023-05-17T11:35:26.316Z,23.84
2023-05-17T11:37:54.242Z,23.72
2023-05-17T11:40:28.290Z,24.79
2023-05-17T11:43:12.246Z,24.88
2023-05-17T11:45:44.239Z,25.13
2023-05-17T11:48:15.049Z,25.45
2023-05-17T11:50:42.784Z,25.40
2023-05-17T11:53:10.186Z,24.81
2023-05-17T11:55:41.852Z,25.34
2023-05-17T11:58:12.577Z,25.07
2023-05-17T12:00:41.899Z,25.18
2023-05-17T12:03:36.542Z,25.36
2023-05-17T12:06:13.492Z,24.28
2023-05-17T12:08:43.562Z,23.28
2023-05-17T12:11:14.730Z,22.65
2023-05-17T12:13:42.586Z,23.92
2023-05-17T12:16:14.017Z,24.89
2023-05-17T12:18:49.637Z,25.12
2023-05-17T12:21:18.613Z,25.51
2023-05-17T12:23:49.579Z,25.15
2023-05-17T12:26:19.647Z,25.46
2023-05-17T12:28:54.746Z,24.60
2023-05-17T12:31:35.770Z,25.04
2023-05-17T12:34:05.153Z,24.72
2023-05-17T12:36:33.558Z,24.73
2023-05-17T12:39:01.754Z,24.99
2023-05-17T12:41:30.772Z,25.16
2023-05-17T12:44:13.784Z,25.39
2023-05-17T12:46:41.878Z,25.87
2023-05-17T12:49:10.963Z,25.95
2023-05-17T12:51:47.859Z,25.72
2023-05-17T12:54:25.364Z,25.47
2023-05-17T12:56:52.323Z,26.07
2023-05-17T12:59:20.934Z,25.34
2023-05-17T13:01:49.746Z,25.92
2023-05-17T13:04:17.612Z,26.36
2023-05-17T13:06:54.318Z,26.03
2023-05-17T13:09:24.958Z,25.07
2023-05-17T13:11:56.391Z,25.37
2023-05-17T13:14:45.395Z,24.94
2023-05-17T13:17:24.907Z,24.44
2023-05-17T13:19:51.979Z,23.75
2023-05-17T13:22:18.861Z,23.77
2023-05-17T13:24:45.861Z,24.31
2023-05-17T13:27:12.657Z,25.05
2023-05-17T13:29:42.395Z,25.42
2023-05-17T13:32:12.016Z,25.04
2023-05-17T13:34:39.077Z,24.74
2023-05-17T13:37:08.657Z,24.70
2023-05-17T13:39:37.146Z,25.62
2023-05-17T13:42:04.504Z,26.43
2023-05-17T13:44:31.548Z,27.55
2023-05-17T13:46:58.125Z,28.49
2023-05-17T13:49:24.933Z,28.59
2023-05-17T13:51:51.802Z,28.62
2023-05-17T13:54:20.145Z,29.13
2023-05-17T13:56:46.961Z,27.62
2023-05-17T13:59:15.139Z,28.19
2023-05-17T14:01:43.362Z,28.22
2023-05-17T14:04:10.239Z,27.66
2023-05-17T14:06:36.921Z,27.08
2023-05-17T14:09:04.305Z,26.70
2023-05-17T14:11:30.981Z,26.25
2023-05-17T14:13:57.979Z,26.08
2023-05-17T14:16:24.707Z,26.32
2023-05-17T14:18:51.398Z,27.04
2023-05-17T14:21:18.107Z,25.56
2023-05-17T14:23:44.724Z,26.09
2023-05-17T14:26:11.968Z,26.37
2023-05-17T14:28:39.075Z,26.21
2023-05-17T14:31:07.493Z,26.55
2023-05-17T14:33:34.476Z,27.77
2023-05-17T14:36:01.319Z,26.58
2023-05-17T14:38:28.149Z,26.39
2023-05-17T14:40:55.086Z,26.18
2023-05-17T14:43:22.213Z,25.92
2023-05-17T14:45:50.026Z,25.65
2023-05-17T14:48:16.693Z,26.04
2023-05-17T14:50:43.358Z,26.37
2023-05-17T14:53:12.896Z,26.17
2023-05-17T14:55:39.586Z,25.97
2023-05-17T14:58:06.406Z,26.05
2023-05-17T15:00:33.261Z,25.50
2023-05-17T15:02:59.904Z,25.40
2023-05-17T15:05:27.842Z,25.50
2023-05-17T15:07:54.794Z,25.46
2023-05-17T15:10:21.538Z,26.00
2023-05-17T15:12:48.646Z,26.33
2023-05-17T15:15:15.263Z,25.72
2023-05-17T15:17:42.512Z,25.53
2023-05-17T15:20:10.868Z,24.99
2023-05-17T15:22:37.692Z,25.16
2023-05-17T15:25:05.940Z,25.38
2023-05-17T15:27:32.758Z,25.13
2023-05-17T15:29:59.347Z,24.79
2023-05-17T15:32:26.530Z,24.09
2023-05-17T15:34:53.133Z,24.71
2023-05-17T15:37:19.681Z,24.73
2023-05-17T15:39:46.456Z,24.30
2023-05-17T15:42:13.072Z,24.53
2023-05-17T15:44:39.693Z,24.76
2023-05-17T15:47:06.613Z,25.25
2023-05-17T15:49:33.663Z,26.41
2023-05-17T15:52:00.370Z,26.86
2023-05-17T15:54:26.968Z,26.86
2023-05-17T15:56:53.577Z,27.05
2023-05-17T15:59:20.228Z,27.60
2023-05-17T16:01:46.844Z,27.79
2023-05-17T16:04:14.043Z,28.40
2023-05-17T16:06:41.102Z,27.70
2023-05-17T16:09:07.907Z,26.72
2023-05-17T16:11:34.576Z,26.63
2023-05-17T16:14:01.223Z,26.20
2023-05-17T16:16:28.146Z,26.31
2023-05-17T16:18:54.991Z,26.47
2023-05-17T16:21:21.762Z,27.78
2023-05-17T16:23:49.160Z,27.82
2023-05-17T16:26:15.787Z,27.83
2023-05-17T16:28:42.904Z,27.69
2023-05-17T16:31:09.774Z,28.46
2023-05-17T16:33:37.024Z,27.80
2023-05-17T16:36:04.890Z,28.10
2023-05-17T16:38:32.023Z,27.82
2023-05-17T16:41:02.968Z,27.87
2023-05-17T16:43:31.411Z,28.35
2023-05-17T16:45:58.005Z,27.38
2023-05-17T16:48:24.696Z,27.42
2023-05-17T16:50:51.577Z,27.04
2023-05-17T16:53:18.370Z,27.38
2023-05-17T16:55:44.953Z,27.16
2023-05-17T16:58:14.932Z,26.92
2023-05-17T17:00:42.033Z,26.66
2023-05-17T17:03:09.754Z,26.38
2023-05-17T17:05:37.148Z,26.66
2023-05-17T17:08:03.794Z,26.34
2023-05-17T17:10:30.723Z,26.56
2023-05-17T17:12:57.594Z,26.67
2023-05-17T17:15:24.529Z,26.72
2023-05-17T17:17:51.308Z,26.96
2023-05-17T17:20:18.273Z,26.42
2023-05-17T17:22:44.860Z,26.12
2023-05-17T17:25:11.833Z,26.72
2023-05-17T17:27:38.787Z,27.16
2023-05-17T17:30:06.860Z,27.34
2023-05-17T17:32:33.747Z,26.73
2023-05-17T17:35:00.568Z,27.03
2023-05-17T17:37:27.195Z,27.53
2023-05-17T17:39:54.438Z,27.78
2023-05-17T17:42:21.212Z,27.35
2023-05-17T17:44:47.786Z,27.05
2023-05-17T17:47:14.664Z,27.73
2023-05-17T17:49:41.329Z,27.52
2023-05-17T17:52:07.951Z,27.65
2023-05-17T17:54:34.554Z,28.15
2023-05-17T17:57:02.331Z,28.58
2023-05-17T17:59:29.173Z,28.32
2023-05-17T18:01:56.363Z,28.18
2023-05-17T18:04:23.005Z,28.02
2023-05-17T18:06:50.068Z,28.08
2023-05-17T18:09:16.740Z,28.68
2023-05-17T18:11:43.794Z,28.54
2023-05-17T18:14:10.394Z,28.29
2023-05-17T18:16:37.813Z,28.41
2023-05-17T18:19:04.571Z,28.73
2023-05-17T18:21:31.293Z,28.38
2023-05-17T18:23:58.296Z,28.01
2023-05-17T18:26:25.865Z,28.15
2023-05-17T18:28:52.663Z,28.03
2023-05-17T18:31:19.801Z,27.46
2023-05-17T18:33:46.599Z,27.51
2023-05-17T18:36:13.355Z,27.75
2023-05-17T18:38:40.274Z,27.63
2023-05-17T18:41:07.090Z,27.70
2023-05-17T18:43:33.908Z,27.47
2023-05-17T18:46:00.942Z,27.59
2023-05-17T18:48:28.394Z,27.44
2023-05-17T18:50:57.357Z,27.75
2023-05-17T18:53:24.312Z,28.21
2023-05-17T18:55:51.298Z,28.12
2023-05-17T18:58:18.366Z,28.55
2023-05-17T19:00:48.017Z,28.42
2023-05-17T19:03:15.316Z,28.29
2023-05-17T19:05:42.085Z,28.23
2023-05-17T19:08:08.863Z,28.54
2023-05-17T19:10:35.792Z,28.44
2023-05-17T19:13:02.784Z,28.70
2023-05-17T19:15:32.970Z,27.99
2023-05-17T19:18:00.386Z,28.44
2023-05-17T19:20:27.240Z,28.28
2023-05-17T19:22:53.968Z,28.12
2023-05-17T19:25:21.206Z,28.67
2023-05-17T19:27:48.264Z,27.63
2023-05-17T19:30:15.279Z,27.52
2023-05-17T19:32:42.094Z,27.60
2023-05-17T19:35:09.489Z,27.36
2023-05-17T19:37:36.527Z,27.35
2023-05-17T19:40:06.089Z,27.72
2023-05-17T19:42:32.952Z,27.67
2023-05-17T19:44:59.757Z,27.79
2023-05-17T19:47:26.528Z,28.22
2023-05-17T19:49:53.822Z,28.01
2023-05-17T19:52:23.413Z,28.70
2023-05-17T19:54:50.120Z,28.43
2023-05-17T19:57:16.899Z,28.65
2023-05-17T19:59:43.868Z,28.79
2023-05-17T20:02:10.776Z,28.50
2023-05-17T20:04:38.018Z,28.74
2023-05-17T20:07:04.791Z,29.50
2023-05-17T20:09:32.100Z,29.35
2023-05-17T20:11:59.333Z,29.09
2023-05-17T20:14:27.180Z,29.13
2023-05-17T20:16:54.129Z,29.49
2023-05-17T20:19:21.403Z,29.07
2023-05-17T20:21:48.644Z,28.92
2023-05-17T20:24:15.773Z,28.73
2023-05-17T20:26:45.779Z,28.54
2023-05-17T20:29:12.543Z,28.57
2023-05-17T20:31:39.427Z,28.64
2023-05-17T20:34:06.410Z,29.13
2023-05-17T20:36:33.298Z,29.19
2023-05-17T20:39:00.116Z,28.99
2023-05-17T20:41:27.376Z,28.56
2023-05-17T20:43:54.536Z,28.86
2023-05-17T20:46:21.855Z,28.71
2023-05-17T20:48:49.801Z,28.63
2023-05-17T20:51:19.612Z,28.85
2023-05-17T20:53:46.417Z,28.55
2023-05-17T20:56:14.198Z,28.61
2023-05-17T20:58:41.327Z,28.33
2023-05-17T21:01:08.175Z,28.36
2023-05-17T21:03:35.086Z,28.21
2023-05-17T21:06:02.489Z,28.02
2023-05-17T21:08:29.337Z,28.14
2023-05-17T21:10:56.447Z,28.23
2023-05-17T21:13:25.712Z,28.43
2023-05-17T21:15:56.543Z,28.25
2023-05-17T21:18:24.107Z,28.01
2023-05-17T21:20:51.620Z,28.04
2023-05-17T21:23:19.162Z,27.88
2023-05-17T21:25:45.787Z,28.00
2023-05-17T21:28:12.346Z,28.41
2023-05-17T21:30:38.974Z,28.39
2023-05-17T21:33:06.265Z,28.31
2023-05-17T21:35:33.117Z,27.88
2023-05-17T21:37:59.802Z,28.39
2023-05-17T21:40:26.487Z,27.95
2023-05-17T21:42:53.690Z,27.85
2023-05-17T21:45:20.421Z,27.79
2023-05-17T21:47:47.079Z,27.90
2023-05-17T21:50:13.995Z,27.49
2023-05-17T21:52:40.629Z,27.62
2023-05-17T21:55:08.495Z,27.63
2023-05-17T21:57:38.495Z,27.59
2023-05-17T22:00:07.728Z,27.93
2023-05-17T22:02:35.832Z,27.97
2023-05-17T22:05:02.605Z,28.07
2023-05-17T22:07:29.272Z,27.93
2023-05-17T22:09:56.176Z,27.98
2023-05-17T22:12:25.310Z,27.77
2023-05-17T22:14:56.837Z,27.79
2023-05-17T22:17:35.032Z,27.72
2023-05-17T22:20:11.313Z,27.81
2023-05-17T22:22:38.171Z,28.21
2023-05-17T22:25:06.779Z,28.08
2023-05-17T22:27:33.532Z,28.01
2023-05-17T22:30:00.770Z,28.08
2023-05-17T22:32:27.561Z,27.75
2023-05-17T22:34:56.125Z,28.11
2023-05-17T22:37:23.558Z,28.98
2023-05-17T22:39:50.617Z,28.64
2023-05-17T22:42:17.266Z,28.51
2023-05-17T22:44:43.845Z,28.08
2023-05-17T22:47:14.559Z,28.07
2023-05-17T22:49:41.602Z,28.32
2023-05-17T22:52:08.985Z,28.19
2023-05-17T22:54:36.694Z,28.20
2023-05-17T22:57:04.892Z,28.10
2023-05-17T22:59:33.134Z,28.17
2023-05-17T23:02:01.744Z,28.26
2023-05-17T23:04:29.915Z,28.19
2023-05-17T23:07:04.056Z,28.31
2023-05-17T23:09:31.013Z,28.24
2023-05-17T23:12:00.383Z,28.60
2023-05-17T23:14:27.589Z,28.54
2023-05-17T23:16:54.287Z,28.66
2023-05-17T23:19:23.366Z,28.63
2023-05-17T23:21:50.094Z,28.22
2023-05-17T23:24:17.481Z,28.24
2023-05-17T23:26:44.140Z,27.98
2023-05-17T23:29:10.766Z,28.49
2023-05-17T23:31:37.844Z,28.88
2023-05-17T23:34:06.682Z,28.46
2023-05-17T23:36:33.902Z,28.07
2023-05-17T23:39:00.509Z,28.26
2023-05-17T23:41:29.306Z,28.29
2023-05-17T23:43:57.293Z,28.50
2023-05-17T23:46:24.220Z,28.63
2023-05-17T23:48:50.929Z,28.51
2023-05-17T23:51:20.881Z,28.27
2023-05-17T23:53:50.341Z,29.28
2023-05-17T23:56:18.113Z,29.66
2023-05-17T23:58:47.782Z,29.69
